createdAt,value
2023-03-20T00:00:52.371Z,11.90
2023-03-20T00:03:20.514Z,12.90
2023-03-20T00:05:49.231Z,11.87
2023-03-20T00:08:17.871Z,12.17
2023-03-20T00:10:47.951Z,12.47
2023-03-20T00:13:23.287Z,12.80
2023-03-20T00:15:51.740Z,12.10
2023-03-20T00:18:23.070Z,12.13
2023-03-20T00:20:53.615Z,11.93
2023-03-20T00:23:21.826Z,11.67
2023-03-20T00:25:51.321Z,11.83
2023-03-20T00:28:34.027Z,12.67
2023-03-20T00:31:02.174Z,11.03
2023-03-20T00:33:31.392Z,10.80
2023-03-20T00:36:00.051Z,10.60
2023-03-20T00:38:28.207Z,10.60
2023-03-20T00:40:57.693Z,10.23
2023-03-20T00:43:25.757Z,10.80
2023-03-20T00:45:53.998Z,10.60
2023-03-20T00:48:22.157Z,10.27
2023-03-20T00:50:50.668Z,10.20
2023-03-20T00:53:18.743Z,10.50
2023-03-20T00:55:46.775Z,10.20
2023-03-20T00:58:16.508Z,10.20
2023-03-20T01:00:46.266Z,10.00
2023-03-20T01:03:18.068Z,10.30
2023-03-20T01:05:47.130Z,10.00
2023-03-20T01:08:17.119Z,9.70
2023-03-20T01:10:46.789Z,9.40
2023-03-20T01:13:21.537Z,10.10
2023-03-20T01:15:50.627Z,10.00
2023-03-20T01:18:23.938Z,9.80
2023-03-20T01:20:52.940Z,9.60
2023-03-20T01:23:22.859Z,9.10
2023-03-20T01:25:51.410Z,9.50
2023-03-20T01:28:22.746Z,9.60
2023-03-20T01:30:51.161Z,9.50
2023-03-20T01:33:21.524Z,10.83
2023-03-20T01:35:51.583Z,9.87
2023-03-20T01:38:22.931Z,9.27
2023-03-20T01:40:57.192Z,9.37
2023-03-20T01:43:29.092Z,9.60
2023-03-20T01:46:02.657Z,9.40
2023-03-20T01:48:57.116Z,9.60
2023-03-20T01:51:27.045Z,9.00
2023-03-20T01:53:58.299Z,9.30
2023-03-20T01:56:29.725Z,9.20
2023-03-20T01:59:04.520Z,8.80
2023-03-20T02:01:33.274Z,8.97
2023-03-20T02:04:01.400Z,8.87
2023-03-20T02:06:29.552Z,9.30
2023-03-20T02:08:57.671Z,8.70
2023-03-20T02:11:26.556Z,8.77
2023-03-20T02:13:56.997Z,9.00
2023-03-20T02:16:27.860Z,9.30
2023-03-20T02:18:57.478Z,8.30
2023-03-20T02:22:13.544Z,9.20
2023-03-20T02:25:06.042Z,8.83
2023-03-20T02:27:40.432Z,8.73
2023-03-20T02:30:44.306Z,9.10
2023-03-20T02:34:06.095Z,8.90
2023-03-20T02:36:58.799Z,9.10
2023-03-20T02:39:41.504Z,9.37
2023-03-20T02:42:20.855Z,9.17
2023-03-20T02:44:59.118Z,9.17
2023-03-20T02:47:31.650Z,8.70
2023-03-20T02:50:08.842Z,9.20
2023-03-20T02:52:45.423Z,9.30
2023-03-20T02:55:22.230Z,9.30
2023-03-20T02:57:58.741Z,8.90
2023-03-20T03:00:33.507Z,9.33
2023-03-20T03:03:08.159Z,9.10
2023-03-20T03:05:41.395Z,9.23
2023-03-20T03:08:13.739Z,9.13
2023-03-20T03:10:46.481Z,9.37
2023-03-20T03:13:18.369Z,9.40
2023-03-20T03:15:49.624Z,9.50
2023-03-20T03:18:21.259Z,9.90
2023-03-20T03:20:53.298Z,9.20
2023-03-20T03:23:27.605Z,9.40
2023-03-20T03:26:00.997Z,9.70
2023-03-20T03:28:37.180Z,9.10
2023-03-20T03:31:07.536Z,9.20
2023-03-20T03:33:38.189Z,8.93
2023-03-20T03:36:13.169Z,9.23
2023-03-20T03:38:45.984Z,9.20
2023-03-20T03:41:23.480Z,8.90
2023-03-20T03:43:59.088Z,8.90
2023-03-20T03:46:34.197Z,9.10
2023-03-20T03:49:03.924Z,8.90
2023-03-20T03:51:36.084Z,9.17
2023-03-20T03:54:09.877Z,8.70
2023-03-20T03:56:42.484Z,9.43
2023-03-20T03:59:16.253Z,9.20
2023-03-20T04:01:45.166Z,8.63
2023-03-20T04:04:16.915Z,8.40
2023-03-20T04:06:45.169Z,8.57
2023-03-20T04:09:13.161Z,8.50
2023-03-20T04:11:42.563Z,8.53
2023-03-20T04:14:11.749Z,8.50
2023-03-20T04:16:39.827Z,8.50
2023-03-20T04:19:07.944Z,8.70
2023-03-20T04:21:35.991Z,8.70
2023-03-20T04:24:04.195Z,8.50
2023-03-20T04:26:32.338Z,8.30
2023-03-20T04:29:01.946Z,9.27
2023-03-20T04:31:30.046Z,8.57
2023-03-20T04:33:58.176Z,8.60
2023-03-20T04:36:26.279Z,8.40
2023-03-20T04:38:57.391Z,8.60
2023-03-20T04:41:25.756Z,8.60
2023-03-20T04:43:53.859Z,8.60
2023-03-20T04:46:23.366Z,8.40
2023-03-20T04:48:51.548Z,8.60
2023-03-20T04:51:19.699Z,8.80
2023-03-20T04:53:47.905Z,8.50
2023-03-20T04:56:16.136Z,8.73
2023-03-20T04:58:44.214Z,9.27
2023-03-20T05:01:12.384Z,9.23
2023-03-20T05:03:41.905Z,9.10
2023-03-20T05:06:10.977Z,9.87
2023-03-20T05:08:39.085Z,9.23
2023-03-20T05:11:08.270Z,9.40
2023-03-20T05:13:36.448Z,9.60
2023-03-20T05:16:04.575Z,9.40
2023-03-20T05:18:32.701Z,9.40
2023-03-20T05:21:02.774Z,9.23
2023-03-20T05:23:30.889Z,9.57
2023-03-20T05:25:58.997Z,9.60
2023-03-20T05:28:28.642Z,10.10
2023-03-20T05:30:57.293Z,9.60
2023-03-20T05:33:25.509Z,10.00
2023-03-20T05:35:53.726Z,9.60
2023-03-20T05:38:23.373Z,10.70
2023-03-20T05:40:51.632Z,10.90
2023-03-20T05:43:19.697Z,10.80
2023-03-20T05:45:47.859Z,11.00
2023-03-20T05:48:15.944Z,12.13
2023-03-20T05:50:44.053Z,10.93
2023-03-20T05:53:12.241Z,10.60
2023-03-20T05:55:44.532Z,10.63
2023-03-20T05:58:12.998Z,11.00
2023-03-20T06:00:41.619Z,10.50
2023-03-20T06:03:09.851Z,11.73
2023-03-20T06:05:38.318Z,10.80
2023-03-20T06:08:07.101Z,10.77
2023-03-20T06:10:35.226Z,11.47
2023-03-20T06:13:04.705Z,11.20
2023-03-20T06:15:32.857Z,11.33
2023-03-20T06:18:01.293Z,10.80
2023-03-20T06:20:29.689Z,12.10
2023-03-20T06:22:57.828Z,13.20
2023-03-20T06:25:25.940Z,12.13
2023-03-20T06:27:54.111Z,11.30
2023-03-20T06:30:23.567Z,11.53
2023-03-20T06:32:51.840Z,11.90
2023-03-20T06:35:20.207Z,11.90
2023-03-20T06:37:48.381Z,11.50
2023-03-20T06:40:16.629Z,10.80
2023-03-20T06:42:44.713Z,10.77
2023-03-20T06:45:13.373Z,11.80
2023-03-20T06:47:47.168Z,11.00
2023-03-20T06:50:15.987Z,11.87
2023-03-20T06:52:44.952Z,11.50
2023-03-20T06:55:13.103Z,11.63
2023-03-20T06:57:41.387Z,11.33
2023-03-20T07:00:11.354Z,11.90
2023-03-20T07:02:39.563Z,11.90
2023-03-20T07:05:10.410Z,11.70
2023-03-20T07:07:38.573Z,11.50
2023-03-20T07:10:07.497Z,11.17
2023-03-20T07:12:35.553Z,11.60
2023-03-20T07:15:03.762Z,11.40
2023-03-20T07:17:32.069Z,11.80
2023-03-20T07:20:00.209Z,11.93
2023-03-20T07:22:31.502Z,11.20
2023-03-20T07:24:59.930Z,11.27
2023-03-20T07:27:28.128Z,11.40
2023-03-20T07:29:56.376Z,11.80
2023-03-20T07:32:24.528Z,11.20
2023-03-20T07:34:52.755Z,11.10
2023-03-20T07:37:21.094Z,11.40
2023-03-20T07:39:50.570Z,11.03
2023-03-20T07:42:19.485Z,10.70
2023-03-20T07:44:47.623Z,10.63
2023-03-20T07:47:16.010Z,11.90
2023-03-20T07:49:44.152Z,12.17
2023-03-20T07:52:12.317Z,12.10
2023-03-20T07:54:40.611Z,11.97
2023-03-20T07:57:10.150Z,12.10
2023-03-20T07:59:38.366Z,11.47
2023-03-20T08:02:07.311Z,11.57
2023-03-20T08:04:35.552Z,11.30
2023-03-20T08:07:03.769Z,11.87
2023-03-20T08:09:31.928Z,11.97
2023-03-20T08:12:00.217Z,11.10
2023-03-20T08:14:29.740Z,11.93
2023-03-20T08:17:13.287Z,11.60
2023-03-20T08:19:43.008Z,11.57
2023-03-20T08:22:11.208Z,10.70
2023-03-20T08:24:39.605Z,10.60
2023-03-20T08:27:08.134Z,11.30
2023-03-20T08:29:37.670Z,10.23
2023-03-20T08:32:06.249Z,10.63
2023-03-20T08:34:35.107Z,11.00
2023-03-20T08:37:05.581Z,10.60
2023-03-20T08:39:34.434Z,10.17
2023-03-20T08:42:02.646Z,10.60
2023-03-20T08:44:31.052Z,10.53
2023-03-20T08:47:01.074Z,10.63
2023-03-20T08:49:29.429Z,10.50
2023-03-20T08:51:57.870Z,9.80
2023-03-20T08:54:26.613Z,10.40
2023-03-20T08:56:55.120Z,10.30
2023-03-20T08:59:23.418Z,10.57
2023-03-20T09:01:51.848Z,10.30
2023-03-20T09:04:21.737Z,10.70
2023-03-20T09:06:51.902Z,10.10
2023-03-20T09:09:21.747Z,10.33
2023-03-20T09:11:50.290Z,10.57
2023-03-20T09:14:18.478Z,11.00
2023-03-20T09:16:47.279Z,10.20
2023-03-20T09:19:15.521Z,10.33
2023-03-20T09:21:45.311Z,10.27
2023-03-20T09:24:13.602Z,10.00
2023-03-20T09:26:42.389Z,10.70
2023-03-20T09:29:10.646Z,9.90
2023-03-20T09:31:38.900Z,10.63
2023-03-20T09:34:07.361Z,10.87
2023-03-20T09:36:36.432Z,10.63
2023-03-20T09:39:06.155Z,11.33
2023-03-20T09:41:49.156Z,10.33
2023-03-20T09:44:37.594Z,10.50
2023-03-20T09:47:20.201Z,10.33
2023-03-20T09:49:58.421Z,9.37
2023-03-20T09:52:31.352Z,9.70
2023-03-20T09:55:04.882Z,10.00
2023-03-20T09:57:39.099Z,10.00
2023-03-20T10:00:13.293Z,9.90
2023-03-20T10:02:49.131Z,9.70
2023-03-20T10:05:23.031Z,10.20
2023-03-20T10:07:51.785Z,9.50
2023-03-20T10:10:24.869Z,10.07
2023-03-20T10:13:07.769Z,10.83
2023-03-20T10:15:46.463Z,10.70
2023-03-20T10:18:22.165Z,10.03
2023-03-20T10:20:58.077Z,9.20
2023-03-20T10:23:34.771Z,9.20
2023-03-20T10:26:11.453Z,9.50
2023-03-20T10:28:46.144Z,8.93
2023-03-20T10:31:32.984Z,8.90
2023-03-20T10:34:16.335Z,9.73
2023-03-20T10:36:55.906Z,9.47
2023-03-20T10:39:37.836Z,9.57
2023-03-20T10:42:15.543Z,8.10
2023-03-20T10:44:50.270Z,8.03
2023-03-20T10:47:22.894Z,8.20
2023-03-20T10:49:55.945Z,8.10
2023-03-20T10:52:27.414Z,8.27
2023-03-20T10:54:59.088Z,8.07
2023-03-20T10:57:32.872Z,7.53
2023-03-20T11:00:01.366Z,8.17
2023-03-20T11:02:31.308Z,7.67
2023-03-20T11:05:01.856Z,7.50
2023-03-20T11:07:35.012Z,8.20
2023-03-20T11:10:12.303Z,9.10
2023-03-20T11:12:43.959Z,8.60
2023-03-20T11:15:24.527Z,8.00
2023-03-20T11:17:55.727Z,8.33
2023-03-20T11:20:25.902Z,9.23
2023-03-20T11:23:00.955Z,8.70
2023-03-20T11:25:35.089Z,8.40
2023-03-20T11:28:31.280Z,8.00
2023-03-20T11:31:04.876Z,8.67
2023-03-20T11:33:37.627Z,8.80
2023-03-20T11:36:13.837Z,8.50
2023-03-20T11:38:46.356Z,8.60
2023-03-20T11:41:21.292Z,8.23
2023-03-20T11:43:50.915Z,8.30
2023-03-20T11:46:23.224Z,8.20
2023-03-20T11:49:05.890Z,8.30
2023-03-20T11:51:35.469Z,8.37
2023-03-20T11:54:06.228Z,8.50
2023-03-20T11:56:35.758Z,7.57
2023-03-20T11:59:14.194Z,8.10
2023-03-20T12:01:47.222Z,8.30
2023-03-20T12:04:18.197Z,7.87
2023-03-20T12:06:52.056Z,8.40
2023-03-20T12:09:36.768Z,9.00
2023-03-20T12:12:20.154Z,8.63
2023-03-20T12:14:56.898Z,8.33
2023-03-20T12:17:35.030Z,8.07
2023-03-20T12:20:08.340Z,8.50
2023-03-20T12:22:41.938Z,8.60
2023-03-20T12:25:21.260Z,8.77
2023-03-20T12:27:55.495Z,8.43
2023-03-20T12:30:33.960Z,8.57
2023-03-20T12:33:08.227Z,7.70
2023-03-20T12:35:39.952Z,8.40
2023-03-20T12:38:22.341Z,8.27
2023-03-20T12:40:54.462Z,8.27
2023-03-20T12:43:27.289Z,8.60
2023-03-20T12:46:03.499Z,8.40
2023-03-20T12:48:42.052Z,8.63
2023-03-20T12:51:18.643Z,8.47
2023-03-20T12:53:56.335Z,8.47
2023-03-20T12:56:33.464Z,8.30
2023-03-20T12:59:08.994Z,9.00
2023-03-20T13:01:45.982Z,8.50
2023-03-20T13:04:29.283Z,8.70
2023-03-20T13:07:01.511Z,8.20
2023-03-20T13:09:49.545Z,8.30
2023-03-20T13:12:27.165Z,8.20
2023-03-20T13:15:02.793Z,7.60
2023-03-20T13:17:41.855Z,7.70
2023-03-20T13:20:22.807Z,7.87
2023-03-20T13:23:10.770Z,7.40
2023-03-20T13:25:54.811Z,7.20
2023-03-20T13:28:31.047Z,6.67
2023-03-20T13:31:06.245Z,6.80
2023-03-20T13:33:48.642Z,6.93
2023-03-20T13:36:26.336Z,7.30
2023-03-20T13:39:02.564Z,7.23
2023-03-20T13:41:30.969Z,6.60
2023-03-20T13:44:03.625Z,6.90
2023-03-20T13:46:38.560Z,7.03
2023-03-20T13:49:15.321Z,7.30
2023-03-20T13:51:48.758Z,7.13
2023-03-20T13:54:36.762Z,7.47
2023-03-20T13:57:14.173Z,6.80
2023-03-20T13:59:51.290Z,7.03
2023-03-20T14:02:35.708Z,7.77
2023-03-20T14:05:12.047Z,6.70
2023-03-20T14:07:45.216Z,7.23
2023-03-20T14:10:36.908Z,6.70
2023-03-20T14:13:15.065Z,7.10
2023-03-20T14:15:55.581Z,6.63
2023-03-20T14:18:26.527Z,6.90
2023-03-20T14:21:00.907Z,7.17
2023-03-20T14:23:36.653Z,6.90
2023-03-20T14:26:11.728Z,6.93
2023-03-20T14:28:54.498Z,6.70
2023-03-20T14:31:26.845Z,6.60
2023-03-20T14:34:09.549Z,6.23
2023-03-20T14:36:59.440Z,6.40
2023-03-20T14:39:49.471Z,6.53
2023-03-20T14:42:30.185Z,6.40
2023-03-20T14:45:38.426Z,6.23
2023-03-20T14:48:13.385Z,5.77
2023-03-20T14:50:50.877Z,6.20
2023-03-20T14:53:23.216Z,6.10
2023-03-20T14:56:12.662Z,6.00
2023-03-20T14:58:54.437Z,5.80
2023-03-20T15:01:44.520Z,5.37
2023-03-20T15:04:32.139Z,5.53
2023-03-20T15:07:03.449Z,5.00
2023-03-20T15:09:37.202Z,5.57
2023-03-20T15:12:06.006Z,6.10
2023-03-20T15:14:41.711Z,6.17
2023-03-20T15:17:22.412Z,6.50
2023-03-20T15:19:50.790Z,6.40
2023-03-20T15:22:22.052Z,5.90
2023-03-20T15:24:56.878Z,6.00
2023-03-20T15:27:29.621Z,6.90
2023-03-20T15:29:59.430Z,6.00
2023-03-20T15:32:27.657Z,6.00
2023-03-20T15:34:55.860Z,6.23
2023-03-20T15:37:25.822Z,6.20
2023-03-20T15:39:59.243Z,6.40
2023-03-20T15:42:28.540Z,6.80
2023-03-20T15:44:57.578Z,6.30
2023-03-20T15:47:29.178Z,6.80
2023-03-20T15:50:00.209Z,6.70
2023-03-20T15:52:33.081Z,6.50
2023-03-20T15:55:08.019Z,6.40
2023-03-20T15:57:39.087Z,6.40
2023-03-20T16:00:11.762Z,5.90
2023-03-20T16:02:40.204Z,6.27
2023-03-20T16:05:14.250Z,6.47
2023-03-20T16:07:42.595Z,6.00
2023-03-20T16:10:21.355Z,6.70
2023-03-20T16:12:50.794Z,6.70
2023-03-20T16:15:20.678Z,6.50
2023-03-20T16:17:58.453Z,6.30
2023-03-20T16:20:29.698Z,8.00
2023-03-20T16:23:02.857Z,7.40
2023-03-20T16:25:32.464Z,6.50
2023-03-20T16:28:00.712Z,6.40
2023-03-20T16:30:32.702Z,6.13
2023-03-20T16:33:03.095Z,5.90
2023-03-20T16:35:38.034Z,6.10
2023-03-20T16:38:18.134Z,6.20
2023-03-20T16:40:49.857Z,6.10
2023-03-20T16:43:20.668Z,6.00
2023-03-20T16:45:54.101Z,6.30
2023-03-20T16:48:26.575Z,6.60
2023-03-20T16:50:59.181Z,6.50
2023-03-20T16:53:30.982Z,7.00
2023-03-20T16:56:05.011Z,6.50
2023-03-20T16:58:35.505Z,6.10
2023-03-20T17:01:05.613Z,6.50
2023-03-20T17:03:38.347Z,6.60
2023-03-20T17:06:11.082Z,5.83
2023-03-20T17:08:43.213Z,7.13
2023-03-20T17:11:15.094Z,6.53
2023-03-20T17:13:44.731Z,6.47
2023-03-20T17:16:18.566Z,7.20
2023-03-20T17:18:47.377Z,6.60
2023-03-20T17:21:16.418Z,6.43
2023-03-20T17:23:44.719Z,6.67
2023-03-20T17:26:14.554Z,6.53
2023-03-20T17:28:43.326Z,6.00
2023-03-20T17:31:15.136Z,5.57
2023-03-20T17:33:43.848Z,5.60
2023-03-20T17:36:16.409Z,6.33
2023-03-20T17:38:44.629Z,6.37
2023-03-20T17:41:16.163Z,6.20
2023-03-20T17:43:44.599Z,6.30
2023-03-20T17:46:19.169Z,6.43
2023-03-20T17:48:48.626Z,8.30
2023-03-20T17:51:16.793Z,6.03
2023-03-20T17:53:45.196Z,6.00
2023-03-20T17:56:16.451Z,6.63
2023-03-20T17:58:45.726Z,7.60
2023-03-20T18:01:14.680Z,5.87
2023-03-20T18:03:43.138Z,5.90
2023-03-20T18:06:19.865Z,6.37
2023-03-20T18:08:48.175Z,5.83
2023-03-20T18:11:17.714Z,5.97
2023-03-20T18:13:50.459Z,5.70
2023-03-20T18:16:22.007Z,6.00
2023-03-20T18:18:51.163Z,6.60
2023-03-20T18:21:19.600Z,5.90
2023-03-20T18:23:47.783Z,5.50
2023-03-20T18:26:22.661Z,5.60
2023-03-20T18:28:52.928Z,6.57
2023-03-20T18:31:22.150Z,6.30
2023-03-20T18:33:54.097Z,6.40
2023-03-20T18:36:25.986Z,7.37
2023-03-20T18:38:55.772Z,6.30
2023-03-20T18:41:25.589Z,6.77
2023-03-20T18:43:55.547Z,6.20
2023-03-20T18:46:25.881Z,6.57
2023-03-20T18:48:55.542Z,6.60
2023-03-20T18:51:23.721Z,6.00
2023-03-20T18:53:51.894Z,5.90
2023-03-20T18:56:22.991Z,6.90
2023-03-20T18:58:53.929Z,6.53
2023-03-20T19:01:22.674Z,6.77
2023-03-20T19:03:53.759Z,6.70
2023-03-20T19:06:24.269Z,6.20
2023-03-20T19:08:53.922Z,6.27
2023-03-20T19:11:22.354Z,6.43
2023-03-20T19:13:53.775Z,6.70
2023-03-20T19:16:25.481Z,6.40
2023-03-20T19:18:55.213Z,6.33
2023-03-20T19:21:26.399Z,6.80
2023-03-20T19:23:55.351Z,6.00
2023-03-20T19:26:25.912Z,6.50
2023-03-20T19:28:57.292Z,6.47
2023-03-20T19:31:27.699Z,6.20
2023-03-20T19:33:56.962Z,6.10
2023-03-20T19:36:28.290Z,6.27
2023-03-20T19:38:57.248Z,6.90
2023-03-20T19:41:26.078Z,6.57
2023-03-20T19:43:56.179Z,6.90
2023-03-20T19:46:39.251Z,7.10
2023-03-20T19:49:18.603Z,7.40
2023-03-20T19:51:48.247Z,8.30
2023-03-20T19:54:16.493Z,6.97
2023-03-20T19:56:44.709Z,7.47
2023-03-20T19:59:16.539Z,7.40
2023-03-20T20:01:46.223Z,7.13
2023-03-20T20:04:15.016Z,7.57
2023-03-20T20:06:43.228Z,9.30
2023-03-20T20:09:11.510Z,7.30
2023-03-20T20:11:39.755Z,7.40
2023-03-20T20:14:10.110Z,6.63
2023-03-20T20:16:42.499Z,7.63
2023-03-20T20:19:10.993Z,7.30
2023-03-20T20:24:27.728Z,7.60
2023-03-20T20:27:15.339Z,7.43
2023-03-20T20:29:47.069Z,6.93
2023-03-20T20:32:16.721Z,7.03
2023-03-20T20:40:25.364Z,7.53
2023-03-20T20:42:56.269Z,7.40
2023-03-20T20:45:26.471Z,7.00
2023-03-20T20:47:56.862Z,7.53
2023-03-20T20:50:28.321Z,7.53
2023-03-20T20:52:57.518Z,6.93
2023-03-20T20:55:25.938Z,7.10
2023-03-20T20:57:55.594Z,7.80
2023-03-20T21:00:40.997Z,7.20
2023-03-20T21:03:15.946Z,7.00
2023-03-20T21:05:44.172Z,8.27
2023-03-20T21:08:14.261Z,7.80
2023-03-20T21:10:45.623Z,7.83
2023-03-20T21:13:14.326Z,7.73
2023-03-20T21:15:46.199Z,8.10
2023-03-20T21:18:17.539Z,8.00
2023-03-20T21:20:46.105Z,8.30
2023-03-20T21:23:14.374Z,7.20
2023-03-20T21:25:45.583Z,7.43
2023-03-20T21:28:15.275Z,7.53
2023-03-20T21:31:03.931Z,7.33
2023-03-20T21:33:34.542Z,7.70
2023-03-20T21:36:03.105Z,8.17
2023-03-20T21:39:05.847Z,7.97
2023-03-20T21:41:19.505Z,8.23
2023-03-20T21:43:47.681Z,8.63
2023-03-20T22:03:18.416Z,8.00
2023-03-20T22:09:42.827Z,8.20
2023-03-20T22:12:18.054Z,7.77
2023-03-20T22:15:09.252Z,7.57
2023-03-20T22:23:42.678Z,7.17
2023-03-20T22:26:25.365Z,7.03
2023-03-20T22:29:21.183Z,7.40
2023-03-20T22:31:55.348Z,7.50
2023-03-20T22:45:19.310Z,6.90
2023-03-20T22:47:47.395Z,7.30
2023-03-20T22:50:15.492Z,7.90
2023-03-20T22:52:49.130Z,7.77
2023-03-20T22:55:19.479Z,8.00
2023-03-20T22:58:03.999Z,7.30
2023-03-20T23:00:34.630Z,7.20
2023-03-20T23:03:17.238Z,7.43
2023-03-20T23:05:51.069Z,7.53
2023-03-20T23:08:19.461Z,7.70
2023-03-20T23:10:51.081Z,7.90
2023-03-20T23:13:20.409Z,7.67
2023-03-20T23:15:50.659Z,7.13
2023-03-20T23:18:19.199Z,7.60
2023-03-20T23:20:47.356Z,7.23
2023-03-20T23:23:15.539Z,7.27
2023-03-20T23:25:43.725Z,8.03
2023-03-20T23:28:13.404Z,7.57
2023-03-20T23:30:48.243Z,7.53
2023-03-20T23:33:19.836Z,7.83
2023-03-20T23:35:48.844Z,7.57
2023-03-20T23:38:17.844Z,7.67
2023-03-20T23:40:50.150Z,7.80
2023-03-20T23:43:20.448Z,8.10
2023-03-20T23:45:48.646Z,7.40
2023-03-20T23:48:17.654Z,7.83
2023-03-20T23:50:52.999Z,8.27
2023-03-20T23:53:22.491Z,7.23
2023-03-20T23:55:52.995Z,8.03
2023-03-20T23:58:23.538Z,8.10
